createdAt,value
2018-05-26T00:02:05.148Z,56.60
2018-05-26T00:04:32.755Z,56.60
2018-05-26T00:07:01.268Z,56.60
2018-05-26T00:09:36.348Z,56.60
2018-05-26T00:12:06.199Z,56.50
2018-05-26T00:14:36.015Z,56.50
2018-05-26T00:17:03.710Z,56.50
2018-05-26T00:19:43.765Z,56.40
2018-05-26T00:22:11.700Z,56.50
2018-05-26T00:24:40.078Z,56.60
2018-05-26T00:27:08.013Z,56.40
2018-05-26T00:29:35.663Z,56.60
2018-05-26T00:32:05.463Z,56.70
2018-05-26T00:34:34.669Z,56.80
2018-05-26T00:37:05.195Z,56.50
2018-05-26T00:39:32.826Z,56.70
2018-05-26T00:42:01.757Z,56.80
2018-05-26T00:44:31.241Z,56.90
2018-05-26T00:47:00.891Z,56.80
2018-05-26T00:49:30.430Z,57.00
2018-05-26T00:52:00.926Z,56.90
2018-05-26T00:54:28.526Z,57.00
2018-05-26T00:56:57.944Z,56.90
2018-05-26T00:59:26.454Z,57.10
2018-05-26T01:01:58.725Z,57.10
2018-05-26T01:04:40.654Z,57.00
2018-05-26T01:07:12.401Z,57.00
2018-05-26T01:09:45.213Z,57.10
2018-05-26T01:12:13.167Z,57.10
2018-05-26T01:14:40.813Z,57.20
2018-05-26T01:17:09.288Z,57.40
2018-05-26T01:19:43.205Z,57.40
2018-05-26T01:22:11.267Z,57.40
2018-05-26T01:24:39.028Z,57.50
2018-05-26T01:27:09.126Z,57.50
2018-05-26T01:29:45.621Z,57.50
2018-05-26T01:32:19.560Z,57.50
2018-05-26T01:34:53.140Z,57.80
2018-05-26T01:37:31.991Z,57.70
2018-05-26T01:40:00.313Z,57.80
2018-05-26T01:42:28.690Z,57.80
2018-05-26T01:44:56.376Z,57.80
2018-05-26T01:47:29.312Z,58.10
2018-05-26T01:49:57.698Z,58.20
2018-05-26T01:52:31.013Z,58.20
2018-05-26T01:55:00.584Z,58.30
2018-05-26T01:57:28.214Z,58.40
2018-05-26T01:59:58.735Z,58.40
2018-05-26T02:02:30.804Z,58.50
2018-05-26T02:04:59.224Z,58.50
2018-05-26T02:07:29.530Z,58.50
2018-05-26T02:10:03.560Z,58.50
2018-05-26T02:12:31.890Z,58.60
2018-05-26T02:15:00.867Z,58.70
2018-05-26T02:17:50.100Z,58.60
2018-05-26T02:20:19.583Z,58.60
2018-05-26T02:22:48.307Z,58.40
2018-05-26T02:25:16.968Z,58.40
2018-05-26T02:27:48.583Z,58.40
2018-05-26T02:30:19.444Z,58.30
2018-05-26T02:32:47.562Z,58.50
2018-05-26T02:35:15.295Z,58.70
2018-05-26T02:37:45.528Z,58.80
2018-05-26T02:40:22.497Z,58.70
2018-05-26T02:43:00.716Z,58.70
2018-05-26T02:45:35.230Z,58.70
2018-05-26T02:48:04.583Z,58.80
2018-05-26T02:50:32.659Z,58.70
2018-05-26T02:53:01.362Z,58.70
2018-05-26T02:55:32.776Z,58.80
2018-05-26T02:58:03.889Z,58.80
2018-05-26T03:00:32.614Z,58.80
2018-05-26T03:03:09.195Z,58.80
2018-05-26T03:05:43.443Z,58.80
2018-05-26T03:08:16.726Z,58.80
2018-05-26T03:10:50.732Z,58.70
2018-05-26T03:13:25.714Z,58.70
2018-05-26T03:19:06.364Z,58.80
2018-05-26T03:21:33.993Z,58.70
2018-05-26T03:24:02.370Z,58.80
2018-05-26T03:26:29.989Z,58.70
2018-05-26T03:28:58.362Z,58.70
2018-05-26T03:31:25.962Z,58.70
2018-05-26T03:33:53.570Z,58.80
2018-05-26T03:39:21.557Z,58.70
2018-05-26T03:41:50.689Z,58.70
2018-05-26T03:44:20.853Z,58.60
2018-05-26T03:46:49.218Z,58.80
2018-05-26T03:49:16.890Z,58.70
2018-05-26T03:51:52.301Z,58.70
2018-05-26T03:57:15.428Z,58.90
2018-05-26T03:59:57.428Z,59.10
2018-05-26T04:02:26.275Z,59.10
2018-05-26T04:05:01.305Z,59.20
2018-05-26T04:07:39.031Z,59.20
2018-05-26T04:13:05.707Z,59.60
2018-05-26T04:15:35.308Z,59.40
2018-05-26T04:18:04.068Z,59.40
2018-05-26T04:20:31.732Z,59.40
2018-05-26T04:23:00.131Z,59.40
2018-05-26T04:25:27.885Z,59.30
2018-05-26T04:27:55.562Z,59.60
2018-05-26T04:30:23.249Z,59.70
2018-05-26T04:32:50.894Z,59.70
2018-05-26T04:35:18.707Z,59.80
2018-05-26T04:37:46.321Z,59.80
2018-05-26T04:40:14.043Z,60.00
2018-05-26T04:42:42.431Z,60.10
2018-05-26T04:45:10.057Z,60.00
2018-05-26T04:47:38.644Z,59.90
2018-05-26T04:50:07.144Z,60.00
2018-05-26T04:52:35.926Z,60.00
2018-05-26T04:55:04.836Z,60.10
2018-05-26T04:57:33.968Z,60.20
2018-05-26T05:00:02.450Z,60.40
2018-05-26T05:02:30.989Z,60.80
2018-05-26T05:05:00.193Z,61.20
2018-05-26T05:07:28.594Z,61.10
2018-05-26T05:09:56.681Z,61.10
2018-05-26T05:12:24.334Z,61.20
2018-05-26T05:14:52.030Z,61.20
2018-05-26T05:17:19.682Z,61.20
2018-05-26T05:19:47.338Z,61.00
2018-05-26T05:22:15.735Z,61.60
2018-05-26T05:24:43.424Z,61.20
2018-05-26T05:27:11.039Z,61.20
2018-05-26T05:29:39.649Z,61.50
2018-05-26T05:32:08.023Z,61.50
2018-05-26T05:34:35.659Z,61.40
2018-05-26T05:37:03.294Z,61.40
2018-05-26T05:39:30.949Z,61.20
2018-05-26T05:41:58.558Z,60.90
2018-05-26T05:44:26.179Z,60.90
2018-05-26T05:46:54.584Z,61.70
2018-05-26T05:49:22.205Z,61.70
2018-05-26T05:51:49.825Z,61.60
2018-05-26T05:54:18.043Z,61.90
2018-05-26T05:56:45.657Z,62.50
2018-05-26T05:59:14.033Z,62.30
2018-05-26T06:01:42.439Z,62.20
2018-05-26T06:04:10.046Z,62.10
2018-05-26T06:06:38.506Z,61.50
2018-05-26T06:09:06.111Z,61.30
2018-05-26T06:11:33.731Z,61.20
2018-05-26T06:14:02.110Z,61.00
2018-05-26T06:16:34.240Z,61.00
2018-05-26T06:19:09.263Z,60.50
2018-05-26T06:24:56.039Z,61.10
2018-05-26T06:27:31.393Z,60.90
2018-05-26T06:33:02.392Z,60.60
2018-05-26T06:35:30.039Z,60.50
2018-05-26T06:37:57.716Z,61.10
2018-05-26T06:40:27.323Z,61.20
2018-05-26T06:42:57.084Z,61.00
2018-05-26T06:45:26.328Z,60.60
2018-05-26T06:47:54.842Z,60.40
2018-05-26T06:50:23.412Z,60.30
2018-05-26T06:52:52.786Z,60.50
2018-05-26T06:55:25.564Z,60.90
2018-05-26T06:57:56.529Z,60.60
2018-05-26T07:00:25.813Z,60.00
2018-05-26T07:02:58.227Z,59.90
2018-05-26T07:05:28.426Z,59.90
2018-05-26T07:07:56.852Z,59.80
2018-05-26T07:10:30.771Z,59.90
2018-05-26T07:13:02.507Z,59.50
2018-05-26T07:15:48.745Z,59.60
2018-05-26T07:23:39.279Z,59.60
2018-05-26T07:26:10.533Z,59.60
2018-05-26T07:29:30.290Z,59.50
2018-05-26T07:32:01.726Z,59.20
2018-05-26T07:34:43.968Z,58.60
2018-05-26T07:39:54.829Z,58.50
2018-05-26T07:42:26.195Z,58.80
2018-05-26T07:44:57.501Z,58.00
2018-05-26T07:47:40.728Z,57.70
2018-05-26T07:50:15.273Z,57.20
2018-05-26T07:55:26.203Z,56.80
2018-05-26T07:57:57.450Z,56.80
2018-05-26T08:00:31.363Z,56.90
2018-05-26T08:03:00.828Z,56.50
2018-05-26T08:05:30.498Z,56.10
2018-05-26T08:08:00.172Z,56.00
2018-05-26T08:10:31.256Z,55.90
2018-05-26T08:12:59.691Z,55.80
2018-05-26T08:15:30.541Z,55.60
2018-05-26T08:18:01.720Z,55.40
2018-05-26T08:20:34.833Z,54.20
2018-05-26T08:23:05.470Z,54.10
2018-05-26T08:25:35.875Z,54.50
2018-05-26T08:31:27.640Z,53.80
2018-05-26T08:33:59.417Z,53.20
2018-05-26T08:36:32.531Z,53.10
2018-05-26T08:39:02.518Z,53.70
2018-05-26T08:41:30.919Z,52.30
2018-05-26T08:43:59.070Z,52.30
2018-05-26T08:46:48.247Z,52.80
2018-05-26T08:49:16.936Z,52.20
2018-05-26T08:51:46.581Z,52.10
2018-05-26T08:54:14.232Z,52.00
2018-05-26T08:56:45.107Z,52.20
2018-05-26T08:59:12.762Z,51.90
2018-05-26T09:01:40.350Z,51.40
2018-05-26T09:04:09.312Z,51.00
2018-05-26T09:06:37.255Z,50.60
2018-05-26T09:09:08.555Z,50.80
2018-05-26T09:11:38.260Z,50.20
2018-05-26T09:14:05.902Z,50.30
2018-05-26T09:16:34.840Z,50.60
2018-05-26T09:19:02.819Z,50.50
2018-05-26T09:21:30.440Z,49.80
2018-05-26T09:24:01.069Z,49.00
2018-05-26T09:26:29.927Z,49.20
2018-05-26T09:29:22.146Z,49.20
2018-05-26T09:31:49.877Z,49.10
2018-05-26T09:34:17.533Z,49.00
2018-05-26T09:36:46.000Z,48.70
2018-05-26T09:39:13.634Z,48.40
2018-05-26T09:41:42.522Z,48.70
2018-05-26T09:44:10.992Z,48.40
2018-05-26T09:46:39.618Z,48.30
2018-05-26T09:49:07.271Z,47.80
2018-05-26T09:51:36.419Z,47.80
2018-05-26T09:54:04.179Z,46.70
2018-05-26T09:56:32.645Z,47.00
2018-05-26T09:59:02.780Z,47.70
2018-05-26T10:01:34.231Z,47.70
2018-05-26T10:04:01.878Z,47.60
2018-05-26T10:06:33.353Z,47.00
2018-05-26T10:09:10.547Z,46.70
2018-05-26T10:11:38.935Z,45.50
2018-05-26T10:14:10.253Z,45.50
2018-05-26T10:16:39.511Z,45.10
2018-05-26T10:19:07.161Z,45.30
2018-05-26T10:21:36.339Z,44.70
2018-05-26T10:24:05.025Z,43.90
2018-05-26T10:26:34.273Z,43.40
2018-05-26T10:29:02.005Z,43.70
2018-05-26T10:31:30.275Z,43.90
2018-05-26T10:34:00.108Z,45.10
2018-05-26T10:36:32.722Z,43.80
2018-05-26T10:39:02.417Z,44.00
2018-05-26T10:41:32.624Z,43.80
2018-05-26T10:44:01.430Z,43.60
2018-05-26T10:46:29.098Z,44.10
2018-05-26T10:48:58.858Z,43.20
2018-05-26T10:51:27.061Z,43.10
2018-05-26T10:53:55.775Z,42.90
2018-05-26T10:59:16.970Z,42.70
2018-05-26T11:01:46.251Z,43.00
2018-05-26T11:04:13.979Z,43.00
2018-05-26T11:06:46.677Z,42.30
2018-05-26T11:09:15.067Z,42.20
2018-05-26T11:11:44.193Z,41.70
2018-05-26T11:14:13.816Z,42.10
2018-05-26T11:19:20.517Z,41.40
2018-05-26T11:21:53.425Z,41.60
2018-05-26T11:24:21.424Z,41.50
2018-05-26T11:26:51.955Z,40.90
2018-05-26T11:29:19.859Z,40.70
2018-05-26T11:31:49.071Z,41.10
2018-05-26T11:34:24.216Z,41.10
2018-05-26T11:36:53.990Z,40.90
2018-05-26T11:39:21.881Z,40.30
2018-05-26T11:41:52.620Z,40.70
2018-05-26T11:44:21.315Z,40.70
2018-05-26T11:46:50.147Z,40.20
2018-05-26T11:49:18.566Z,39.10
2018-05-26T11:51:47.155Z,39.20
2018-05-26T11:54:14.734Z,38.80
2018-05-26T11:56:42.956Z,39.00
2018-05-26T11:59:11.910Z,39.70
2018-05-26T12:01:42.115Z,40.40
2018-05-26T12:04:25.915Z,40.60
2018-05-26T12:06:59.283Z,40.00
2018-05-26T12:09:30.906Z,39.90
2018-05-26T12:12:00.152Z,39.20
2018-05-26T12:14:45.607Z,39.90
2018-05-26T12:17:27.796Z,39.50
2018-05-26T12:19:59.399Z,39.30
2018-05-26T12:22:28.337Z,38.30
2018-05-26T12:24:56.813Z,38.10
2018-05-26T12:27:25.767Z,38.70
2018-05-26T12:30:03.285Z,39.90
2018-05-26T12:32:30.952Z,39.30
2018-05-26T12:35:02.516Z,39.20
2018-05-26T12:37:32.236Z,39.50
2018-05-26T12:40:02.304Z,39.30
2018-05-26T12:42:34.348Z,39.20
2018-05-26T12:45:01.941Z,37.70
2018-05-26T12:47:31.090Z,38.20
2018-05-26T12:50:00.391Z,38.20
2018-05-26T12:52:29.762Z,37.20
2018-05-26T12:54:57.672Z,37.00
2018-05-26T12:58:45.858Z,37.60
2018-05-26T13:01:14.028Z,36.50
2018-05-26T13:03:42.167Z,37.60
2018-05-26T13:06:11.321Z,37.30
2018-05-26T13:08:39.430Z,37.10
2018-05-26T13:11:08.422Z,36.50
2018-05-26T13:13:36.783Z,35.40
2018-05-26T13:16:04.367Z,35.30
2018-05-26T13:18:32.133Z,35.00
2018-05-26T13:21:01.207Z,35.30
2018-05-26T13:23:31.294Z,36.50
2018-05-26T13:26:01.728Z,36.90
2018-05-26T13:28:30.876Z,36.60
2018-05-26T13:30:59.720Z,36.50
2018-05-26T13:33:30.222Z,35.90
2018-05-26T13:35:59.624Z,34.60
2018-05-26T13:41:36.536Z,34.80
2018-05-26T13:44:04.142Z,35.30
2018-05-26T13:46:31.777Z,35.80
2018-05-26T13:48:59.373Z,35.50
2018-05-26T13:51:27.112Z,34.80
2018-05-26T13:53:54.670Z,35.00
2018-05-26T13:56:23.116Z,33.30
2018-05-26T13:58:51.489Z,34.20
2018-05-26T14:01:19.119Z,34.20
2018-05-26T14:03:46.818Z,34.10
2018-05-26T14:06:14.465Z,33.90
2018-05-26T14:08:49.727Z,34.20
2018-05-26T14:11:25.046Z,33.40
2018-05-26T14:19:11.131Z,33.80
2018-05-26T14:21:41.806Z,32.70
2018-05-26T14:24:10.780Z,32.90
2018-05-26T14:26:38.752Z,33.20
2018-05-26T14:29:46.239Z,33.10
2018-05-26T14:32:15.622Z,32.40
2018-05-26T14:34:43.219Z,32.30
2018-05-26T14:37:10.845Z,32.50
2018-05-26T14:39:39.462Z,31.80
2018-05-26T14:42:08.700Z,32.00
2018-05-26T14:44:36.304Z,31.80
2018-05-26T14:47:03.911Z,31.30
2018-05-26T14:49:31.571Z,31.90
2018-05-26T14:52:00.643Z,32.10
2018-05-26T15:02:08.033Z,31.90
2018-05-26T15:04:35.621Z,32.90
2018-05-26T15:07:03.211Z,31.80
2018-05-26T15:09:30.835Z,31.40
2018-05-26T15:11:59.200Z,30.90
2018-05-26T15:14:26.802Z,30.90
2018-05-26T15:16:54.401Z,31.20
2018-05-26T15:19:22.011Z,30.50
2018-05-26T15:21:50.424Z,31.00
2018-05-26T15:24:18.017Z,31.00
2018-05-26T15:26:47.076Z,30.80
2018-05-26T15:29:28.878Z,30.90
2018-05-26T15:38:15.995Z,31.30
2018-05-26T15:40:43.632Z,31.20
2018-05-26T15:43:11.259Z,31.40
2018-05-26T15:45:39.209Z,31.00
2018-05-26T15:48:06.817Z,30.90
2018-05-26T15:50:34.929Z,31.00
2018-05-26T15:53:02.540Z,31.30
2018-05-26T15:55:30.146Z,31.20
2018-05-26T15:57:58.509Z,29.60
2018-05-26T16:00:26.108Z,29.60
2018-05-26T16:02:53.708Z,30.30
2018-05-26T16:05:21.890Z,30.00
2018-05-26T16:49:57.697Z,30.30
2018-05-26T16:52:25.903Z,31.50
2018-05-26T16:54:56.847Z,31.20
2018-05-26T16:57:31.085Z,31.10
2018-05-26T17:00:00.330Z,30.00
2018-05-26T17:02:29.536Z,30.00
2018-05-26T17:04:59.008Z,31.00
2018-05-26T17:07:28.451Z,30.60
2018-05-26T17:09:57.423Z,30.60
2018-05-26T17:12:30.594Z,30.90
2018-05-26T17:15:01.233Z,30.40
2018-05-26T17:17:28.877Z,30.40
2018-05-26T17:20:01.921Z,30.80
2018-05-26T17:28:33.143Z,31.60
2018-05-26T17:31:00.749Z,32.60
2018-05-26T17:33:28.398Z,32.30
2018-05-26T17:35:55.994Z,32.40
2018-05-26T17:38:23.630Z,32.50
2018-05-26T17:40:51.256Z,32.80
2018-05-26T17:43:19.691Z,33.70
2018-05-26T17:45:48.042Z,32.80
2018-05-26T17:48:15.671Z,32.80
2018-05-26T17:50:43.294Z,32.60
2018-05-26T17:53:10.916Z,32.30
2018-05-26T17:55:38.672Z,32.40
2018-05-26T17:58:06.292Z,32.80
2018-05-26T18:00:33.880Z,33.30
2018-05-26T18:03:01.544Z,33.70
2018-05-26T18:05:32.060Z,33.90
2018-05-26T18:08:01.318Z,33.50
2018-05-26T18:10:28.991Z,33.90
2018-05-26T18:12:58.581Z,34.40
2018-05-26T18:15:30.770Z,34.30
2018-05-26T18:18:05.318Z,34.20
2018-05-26T18:20:35.183Z,34.00
2018-05-26T18:23:06.530Z,33.80
2018-05-26T18:25:35.932Z,33.70
2018-05-26T18:28:05.131Z,33.60
2018-05-26T18:30:33.804Z,33.70
2018-05-26T18:33:03.820Z,33.60
2018-05-26T18:35:31.448Z,33.60
2018-05-26T18:38:02.654Z,33.50
2018-05-26T18:40:32.003Z,33.70
2018-05-26T18:43:02.157Z,33.60
2018-05-26T18:45:30.663Z,33.80
2018-05-26T18:47:59.077Z,34.00
2018-05-26T18:50:31.567Z,34.00
2018-05-26T18:53:03.294Z,34.10
2018-05-26T18:55:33.574Z,34.20
2018-05-26T18:58:01.824Z,34.10
2018-05-26T19:00:33.935Z,34.40
2018-05-26T19:03:06.522Z,35.00
2018-05-26T19:05:35.801Z,35.40
2018-05-26T19:08:06.368Z,35.30
2018-05-26T19:10:33.999Z,35.40
2018-05-26T19:13:01.761Z,35.80
2018-05-26T19:15:31.301Z,36.00
2018-05-26T19:18:00.199Z,36.30
2018-05-26T19:20:28.796Z,36.30
2018-05-26T19:23:00.660Z,36.20
2018-05-26T19:25:32.466Z,36.30
2018-05-26T19:28:03.173Z,36.60
2018-05-26T19:30:34.835Z,36.70
2018-05-26T19:33:05.648Z,37.10
2018-05-26T19:35:34.197Z,37.00
2018-05-26T19:38:03.072Z,37.50
2018-05-26T19:40:30.821Z,37.80
2018-05-26T19:42:59.596Z,38.20
2018-05-26T19:45:28.130Z,39.10
2018-05-26T19:47:57.177Z,38.80
2018-05-26T19:50:28.661Z,38.80
2018-05-26T19:53:03.102Z,39.00
2018-05-26T19:55:31.831Z,39.20
2018-05-26T19:58:00.349Z,39.50
2018-05-26T20:00:31.835Z,39.70
2018-05-26T20:03:07.528Z,39.90
2018-05-26T20:05:35.350Z,39.90
2018-05-26T20:08:41.123Z,39.70
2018-05-26T20:14:20.995Z,39.90
2018-05-26T20:16:49.210Z,39.90
2018-05-26T20:19:18.828Z,40.20
2018-05-26T20:21:47.556Z,40.20
2018-05-26T20:24:15.165Z,40.40
2018-05-26T20:34:19.828Z,41.30
2018-05-26T20:36:47.450Z,41.30
2018-05-26T20:39:15.074Z,41.30
2018-05-26T20:41:42.682Z,41.50
2018-05-26T20:44:10.349Z,41.60
2018-05-26T20:46:38.193Z,41.80
2018-05-26T20:49:06.612Z,42.10
2018-05-26T20:51:35.013Z,42.30
2018-05-26T20:54:02.663Z,42.20
2018-05-26T20:56:30.252Z,42.30
2018-05-26T20:58:57.892Z,42.40
2018-05-26T21:01:25.517Z,42.50
2018-05-26T21:03:53.174Z,42.60
2018-05-26T21:06:20.783Z,42.80
2018-05-26T21:08:48.392Z,42.80
2018-05-26T21:11:16.084Z,42.90
2018-05-26T21:13:43.690Z,43.10
2018-05-26T21:16:12.063Z,43.40
2018-05-26T21:18:39.811Z,43.20
2018-05-26T21:21:07.511Z,43.40
2018-05-26T21:23:35.429Z,43.50
2018-05-26T21:26:03.114Z,43.50
2018-05-26T21:28:32.597Z,43.80
2018-05-26T21:31:01.798Z,43.70
2018-05-26T21:33:30.502Z,43.40
2018-05-26T21:35:58.330Z,44.10
2018-05-26T21:38:33.813Z,44.00
2018-05-26T21:41:06.297Z,44.40
2018-05-26T21:43:38.979Z,44.50
2018-05-26T21:46:10.908Z,44.70
2018-05-26T21:48:40.282Z,44.60
2018-05-26T21:51:08.757Z,44.80
2018-05-26T21:53:36.370Z,44.70
2018-05-26T21:56:05.209Z,44.80
2018-05-26T21:58:33.678Z,45.60
2018-05-26T22:01:01.418Z,44.90
2018-05-26T22:03:32.104Z,45.20
2018-05-26T22:06:03.215Z,45.10
2018-05-26T22:08:30.922Z,45.20
2018-05-26T22:11:00.617Z,45.70
2018-05-26T22:13:33.018Z,45.40
2018-05-26T22:16:04.443Z,45.60
2018-05-26T22:18:38.364Z,45.60
2018-05-26T22:21:07.872Z,45.80
2018-05-26T22:23:35.539Z,45.60
2018-05-26T22:26:03.299Z,45.80
2018-05-26T22:28:32.990Z,46.10
2018-05-26T22:31:00.707Z,46.40
2018-05-26T22:33:40.050Z,46.50
2018-05-26T22:36:14.982Z,46.50
2018-05-26T22:38:42.642Z,46.60
2018-05-26T22:41:13.524Z,46.90
2018-05-26T22:43:42.085Z,46.90
2018-05-26T22:46:10.751Z,47.00
2018-05-26T22:48:38.437Z,46.90
2018-05-26T22:51:06.244Z,47.00
2018-05-26T22:53:34.305Z,47.20
2018-05-26T22:56:05.570Z,47.50
2018-05-26T22:58:34.817Z,47.40
2018-05-26T23:01:03.264Z,47.60
2018-05-26T23:03:31.181Z,47.50
2018-05-26T23:06:02.199Z,47.70
2018-05-26T23:08:31.897Z,47.70
2018-05-26T23:11:00.444Z,47.80
2018-05-26T23:13:31.691Z,47.80
2018-05-26T23:18:39.581Z,48.10
2018-05-26T23:21:09.008Z,48.10
2018-05-26T23:23:36.696Z,48.10
2018-05-26T23:26:05.653Z,48.20
2018-05-26T23:28:36.693Z,48.30
2018-05-26T23:31:05.650Z,48.40
2018-05-26T23:33:34.865Z,48.50
2018-05-26T23:36:04.093Z,48.60
2018-05-26T23:38:31.702Z,48.50
2018-05-26T23:41:01.131Z,48.50
2018-05-26T23:43:29.678Z,48.70
2018-05-26T23:46:02.876Z,48.80
2018-05-26T23:48:30.524Z,48.80
2018-05-26T23:51:02.052Z,49.00
2018-05-26T23:53:33.741Z,48.90
2018-05-26T23:56:01.396Z,49.00
2018-05-26T23:58:29.427Z,49.10
